createdAt,value
2022-11-28T00:01:41.471Z,11.60
2022-11-28T00:04:09.743Z,11.60
2022-11-28T00:06:45.493Z,11.60
2022-11-28T00:09:14.234Z,11.60
2022-11-28T00:11:45.687Z,11.60
2022-11-28T00:14:13.460Z,11.60
2022-11-28T00:16:42.961Z,11.60
2022-11-28T00:19:13.542Z,11.60
2022-11-28T00:21:41.532Z,11.60
2022-11-28T00:24:11.025Z,11.60
2022-11-28T00:26:41.668Z,11.60
2022-11-28T00:29:11.637Z,11.60
2022-11-28T00:31:43.763Z,11.60
2022-11-28T00:34:13.449Z,11.60
2022-11-28T00:36:43.089Z,11.60
2022-11-28T00:39:10.196Z,11.50
2022-11-28T00:41:37.419Z,11.60
2022-11-28T00:44:04.679Z,11.60
2022-11-28T00:46:34.736Z,11.60
2022-11-28T00:49:01.856Z,11.60
2022-11-28T00:51:32.148Z,11.60
2022-11-28T00:54:07.117Z,11.60
2022-11-28T00:56:39.010Z,11.60
2022-11-28T00:59:08.689Z,11.60
2022-11-28T01:01:43.809Z,11.60
2022-11-28T01:04:16.226Z,11.50
2022-11-28T01:06:47.571Z,11.60
2022-11-28T01:09:20.689Z,11.50
2022-11-28T01:11:52.278Z,11.50
2022-11-28T01:14:24.807Z,11.60
2022-11-28T01:16:52.177Z,11.50
2022-11-28T01:19:19.961Z,11.50
2022-11-28T01:21:47.344Z,11.50
2022-11-28T01:24:16.802Z,11.50
2022-11-28T01:26:48.750Z,11.50
2022-11-28T01:29:18.599Z,11.50
2022-11-28T01:31:45.787Z,11.50
2022-11-28T01:34:13.156Z,11.50
2022-11-28T01:36:40.346Z,11.50
2022-11-28T01:39:07.823Z,11.40
2022-11-28T01:41:35.042Z,11.50
2022-11-28T01:44:27.909Z,11.50
2022-11-28T01:46:55.409Z,11.50
2022-11-28T01:49:35.781Z,11.40
2022-11-28T01:52:13.339Z,11.40
2022-11-28T01:54:48.995Z,11.50
2022-11-28T01:57:25.642Z,11.40
2022-11-28T02:00:09.078Z,11.40
2022-11-28T02:02:41.241Z,11.40
2022-11-28T02:05:08.952Z,11.40
2022-11-28T02:07:37.631Z,11.40
2022-11-28T02:10:11.150Z,11.40
2022-11-28T02:13:11.766Z,11.40
2022-11-28T02:16:10.104Z,11.40
2022-11-28T02:18:52.389Z,11.40
2022-11-28T02:21:25.428Z,11.40
2022-11-28T02:23:57.769Z,11.30
2022-11-28T02:26:45.789Z,11.30
2022-11-28T02:30:01.326Z,11.30
2022-11-28T02:32:56.582Z,11.30
2022-11-28T02:35:40.221Z,11.30
2022-11-28T02:38:29.861Z,11.30
2022-11-28T02:41:12.901Z,11.30
2022-11-28T02:44:16.519Z,11.30
2022-11-28T02:47:08.667Z,11.30
2022-11-28T02:49:52.200Z,11.30
2022-11-28T02:52:33.764Z,11.30
2022-11-28T02:55:04.174Z,11.30
2022-11-28T02:57:57.478Z,11.30
2022-11-28T03:00:34.739Z,11.30
2022-11-28T03:03:10.900Z,11.30
2022-11-28T03:06:22.068Z,11.30
2022-11-28T03:09:07.994Z,11.30
2022-11-28T03:11:49.699Z,11.20
2022-11-28T03:14:34.506Z,11.20
2022-11-28T03:17:24.785Z,11.20
2022-11-28T03:20:14.906Z,11.20
2022-11-28T03:23:07.720Z,11.20
2022-11-28T03:25:59.148Z,11.20
2022-11-28T03:28:31.768Z,11.20
2022-11-28T03:31:05.491Z,11.20
2022-11-28T03:33:36.631Z,11.20
2022-11-28T03:36:16.976Z,11.20
2022-11-28T03:38:54.226Z,11.10
2022-11-28T03:41:38.606Z,11.20
2022-11-28T03:44:11.761Z,11.20
2022-11-28T03:46:50.294Z,11.20
2022-11-28T03:49:26.160Z,11.20
2022-11-28T03:52:12.612Z,11.10
2022-11-28T03:54:54.918Z,11.10
2022-11-28T03:57:37.312Z,11.10
2022-11-28T04:00:10.473Z,11.10
2022-11-28T04:02:49.939Z,11.10
2022-11-28T04:05:34.453Z,11.10
2022-11-28T04:08:21.877Z,11.10
2022-11-28T04:11:15.251Z,11.10
2022-11-28T04:14:00.112Z,11.10
2022-11-28T04:16:40.689Z,11.10
2022-11-28T04:19:17.344Z,11.10
2022-11-28T04:21:59.056Z,11.10
2022-11-28T04:24:31.808Z,11.10
2022-11-28T04:27:03.552Z,11.10
2022-11-28T04:29:54.260Z,11.10
2022-11-28T04:32:24.201Z,11.10
2022-11-28T04:35:01.643Z,11.10
2022-11-28T04:37:30.706Z,11.10
2022-11-28T04:40:00.899Z,11.10
2022-11-28T04:42:35.883Z,11.10
2022-11-28T04:45:23.767Z,11.10
2022-11-28T04:47:51.030Z,11.10
2022-11-28T04:50:25.040Z,11.10
2022-11-28T04:53:05.581Z,11.10
2022-11-28T04:55:42.939Z,11.20
2022-11-28T04:58:20.177Z,11.10
2022-11-28T05:00:53.034Z,11.10
2022-11-28T05:03:27.045Z,11.10
2022-11-28T05:05:54.410Z,11.10
2022-11-28T05:08:21.653Z,11.10
2022-11-28T05:10:50.872Z,11.10
2022-11-28T05:13:20.560Z,11.10
2022-11-28T05:15:47.694Z,11.10
2022-11-28T05:18:17.234Z,11.20
2022-11-28T05:20:44.678Z,11.20
2022-11-28T05:23:16.795Z,11.20
2022-11-28T05:25:43.937Z,11.20
2022-11-28T05:28:15.616Z,11.20
2022-11-28T05:30:47.275Z,11.20
2022-11-28T05:33:19.977Z,11.20
2022-11-28T05:35:47.091Z,11.20
2022-11-28T05:38:19.141Z,11.20
2022-11-28T05:40:46.273Z,11.20
2022-11-28T05:43:18.338Z,11.20
2022-11-28T05:45:45.982Z,11.20
2022-11-28T05:48:15.501Z,11.20
2022-11-28T05:50:42.956Z,11.20
2022-11-28T05:53:12.659Z,11.20
2022-11-28T05:55:43.106Z,11.20
2022-11-28T05:58:12.706Z,11.20
2022-11-28T06:00:46.693Z,11.20
2022-11-28T06:03:13.808Z,11.20
2022-11-28T06:05:43.659Z,11.20
2022-11-28T06:08:14.282Z,11.20
2022-11-28T06:10:46.054Z,11.20
2022-11-28T06:13:17.617Z,11.20
2022-11-28T06:15:45.404Z,11.20
2022-11-28T06:18:12.530Z,11.30
2022-11-28T06:20:39.625Z,11.30
2022-11-28T06:23:06.725Z,11.20
2022-11-28T06:25:35.955Z,11.20
2022-11-28T06:28:03.110Z,11.20
2022-11-28T06:30:32.554Z,11.30
2022-11-28T06:32:59.671Z,11.30
2022-11-28T06:35:28.876Z,11.20
2022-11-28T06:37:56.139Z,11.30
2022-11-28T06:40:23.184Z,11.30
2022-11-28T06:42:51.141Z,11.30
2022-11-28T06:45:18.396Z,11.30
2022-11-28T06:47:45.546Z,11.30
2022-11-28T06:50:17.240Z,11.30
2022-11-28T06:52:44.562Z,11.30
2022-11-28T06:55:17.633Z,11.40
2022-11-28T06:57:45.350Z,11.30
2022-11-28T07:00:15.692Z,11.40
2022-11-28T07:02:45.277Z,11.40
2022-11-28T07:05:12.431Z,11.40
2022-11-28T07:07:53.001Z,11.40
2022-11-28T07:10:21.939Z,11.40
2022-11-28T07:13:00.201Z,11.40
2022-11-28T07:15:32.382Z,11.40
2022-11-28T07:18:07.076Z,11.40
2022-11-28T07:20:36.742Z,11.40
2022-11-28T07:23:03.816Z,11.40
2022-11-28T07:25:33.502Z,11.40
2022-11-28T07:28:00.615Z,11.40
2022-11-28T07:30:27.974Z,11.40
2022-11-28T07:32:55.142Z,11.40
2022-11-28T07:35:24.636Z,11.50
2022-11-28T07:37:53.881Z,11.50
2022-11-28T07:40:24.149Z,11.50
2022-11-28T07:42:51.435Z,11.50
2022-11-28T07:45:20.793Z,11.50
2022-11-28T07:47:52.442Z,11.50
2022-11-28T07:50:21.985Z,11.50
2022-11-28T07:52:51.290Z,11.50
2022-11-28T07:55:20.876Z,11.50
2022-11-28T07:57:50.150Z,11.50
2022-11-28T08:00:20.275Z,11.50
2022-11-28T08:02:47.386Z,11.50
2022-11-28T08:05:14.524Z,11.60
2022-11-28T08:07:41.762Z,11.60
2022-11-28T08:10:09.360Z,11.50
2022-11-28T08:12:36.490Z,11.60
2022-11-28T08:15:11.373Z,11.50
2022-11-28T08:17:41.132Z,11.50
2022-11-28T08:20:09.494Z,11.60
2022-11-28T08:22:38.815Z,11.60
2022-11-28T08:25:06.313Z,11.60
2022-11-28T08:27:38.367Z,11.60
2022-11-28T08:30:06.944Z,11.60
2022-11-28T08:32:34.123Z,11.60
2022-11-28T08:35:03.873Z,11.70
2022-11-28T08:37:33.093Z,11.70
2022-11-28T08:40:02.538Z,11.70
2022-11-28T08:42:30.033Z,11.70
2022-11-28T08:44:57.285Z,11.70
2022-11-28T08:47:24.471Z,11.70
2022-11-28T08:49:54.109Z,11.70
2022-11-28T08:52:22.155Z,11.70
2022-11-28T08:54:49.304Z,11.80
2022-11-28T08:57:18.801Z,11.80
2022-11-28T08:59:46.056Z,11.90
2022-11-28T09:02:15.942Z,11.80
2022-11-28T09:04:45.775Z,11.80
2022-11-28T09:07:13.039Z,11.90
2022-11-28T09:09:43.021Z,11.90
2022-11-28T09:12:12.574Z,11.90
2022-11-28T09:14:41.890Z,11.90
2022-11-28T09:17:09.043Z,11.90
2022-11-28T09:19:39.270Z,11.90
2022-11-28T09:22:06.412Z,11.90
2022-11-28T09:24:33.597Z,12.00
2022-11-28T09:27:00.814Z,12.00
2022-11-28T09:29:29.286Z,12.10
2022-11-28T09:31:56.829Z,12.00
2022-11-28T09:34:30.564Z,12.10
2022-11-28T09:37:00.853Z,12.10
2022-11-28T09:39:44.312Z,12.10
2022-11-28T09:42:26.276Z,12.10
2022-11-28T09:45:08.188Z,12.10
2022-11-28T09:47:40.769Z,12.20
2022-11-28T09:50:16.726Z,12.20
2022-11-28T09:53:17.866Z,12.20
2022-11-28T09:55:54.038Z,12.20
2022-11-28T09:58:45.740Z,12.20
2022-11-28T10:01:34.388Z,12.30
2022-11-28T10:04:08.853Z,12.20
2022-11-28T10:06:40.646Z,12.30
2022-11-28T10:09:33.896Z,12.30
2022-11-28T10:12:36.236Z,12.40
2022-11-28T10:15:21.779Z,12.40
2022-11-28T10:18:07.066Z,12.40
2022-11-28T10:20:45.721Z,12.40
2022-11-28T10:23:27.878Z,12.50
2022-11-28T10:26:05.527Z,12.50
2022-11-28T10:28:40.022Z,12.50
2022-11-28T10:31:12.049Z,12.60
2022-11-28T10:33:52.495Z,12.60
2022-11-28T10:36:27.554Z,12.60
2022-11-28T10:38:57.707Z,12.70
2022-11-28T10:41:33.401Z,12.60
2022-11-28T10:44:03.484Z,12.70
2022-11-28T10:46:36.230Z,12.70
2022-11-28T10:49:18.749Z,12.70
2022-11-28T10:51:59.968Z,12.80
2022-11-28T10:54:32.654Z,12.80
2022-11-28T10:57:39.480Z,12.80
2022-11-28T11:00:12.343Z,12.80
2022-11-28T11:02:56.554Z,12.80
2022-11-28T11:05:37.039Z,12.80
2022-11-28T11:08:23.408Z,12.80
2022-11-28T11:10:56.470Z,12.90
2022-11-28T11:13:48.209Z,12.90
2022-11-28T11:16:15.474Z,12.90
2022-11-28T11:18:48.249Z,12.90
2022-11-28T11:21:22.976Z,12.90
2022-11-28T11:24:21.034Z,13.00
2022-11-28T11:26:49.228Z,13.00
2022-11-28T11:29:37.651Z,13.00
2022-11-28T11:32:07.432Z,13.10
2022-11-28T11:34:44.152Z,13.00
2022-11-28T11:37:38.501Z,13.10
2022-11-28T11:40:27.450Z,13.10
2022-11-28T11:43:03.401Z,13.20
2022-11-28T11:45:37.320Z,13.20
2022-11-28T11:48:04.953Z,13.20
2022-11-28T11:50:36.154Z,13.20
2022-11-28T11:53:13.151Z,13.20
2022-11-28T11:55:52.224Z,13.30
2022-11-28T11:58:26.831Z,13.30
2022-11-28T12:00:56.577Z,13.30
2022-11-28T12:03:39.504Z,13.30
2022-11-28T12:06:21.415Z,13.30
2022-11-28T12:08:56.365Z,13.30
2022-11-28T12:11:34.730Z,13.30
2022-11-28T12:14:28.960Z,13.40
2022-11-28T12:17:48.812Z,13.40
2022-11-28T12:20:40.411Z,13.40
2022-11-28T12:23:42.864Z,13.50
2022-11-28T12:26:34.796Z,13.40
2022-11-28T12:32:14.201Z,13.50
2022-11-28T12:34:55.403Z,13.50
2022-11-28T12:38:16.323Z,13.50
2022-11-28T12:41:01.379Z,13.40
2022-11-28T12:44:09.444Z,13.40
2022-11-28T12:46:43.842Z,13.40
2022-11-28T12:49:39.651Z,13.40
2022-11-28T12:52:41.213Z,13.40
2022-11-28T12:55:33.405Z,13.40
2022-11-28T12:58:29.977Z,13.40
2022-11-28T13:01:08.751Z,13.40
2022-11-28T13:04:13.010Z,13.40
2022-11-28T13:06:40.102Z,13.40
2022-11-28T13:09:30.657Z,13.40
2022-11-28T13:12:03.803Z,13.40
2022-11-28T13:14:33.055Z,13.40
2022-11-28T13:17:36.009Z,13.40
2022-11-28T13:20:21.690Z,13.50
2022-11-28T13:23:22.000Z,13.50
2022-11-28T13:26:13.953Z,13.50
2022-11-28T13:29:02.742Z,13.50
2022-11-28T13:31:38.513Z,13.60
2022-11-28T13:34:14.837Z,13.60
2022-11-28T13:39:57.166Z,13.70
2022-11-28T13:42:59.748Z,13.70
2022-11-28T13:45:34.311Z,13.60
2022-11-28T13:51:32.700Z,13.60
2022-11-28T13:54:19.328Z,13.60
2022-11-28T13:57:06.097Z,13.60
2022-11-28T13:59:36.440Z,13.50
2022-11-28T14:02:34.441Z,13.50
2022-11-28T14:05:02.515Z,13.60
2022-11-28T14:07:32.303Z,13.50
2022-11-28T14:10:18.081Z,13.60
2022-11-28T14:13:22.941Z,13.60
2022-11-28T14:16:27.427Z,13.60
2022-11-28T14:19:02.481Z,13.60
2022-11-28T14:21:38.171Z,13.60
2022-11-28T14:24:12.539Z,13.60
2022-11-28T14:26:42.908Z,13.60
2022-11-28T14:29:24.725Z,13.60
2022-11-28T14:32:27.846Z,13.60
2022-11-28T14:34:49.123Z,13.50
2022-11-28T14:37:29.273Z,13.50
2022-11-28T14:39:57.765Z,13.50
2022-11-28T14:43:00.062Z,13.50
2022-11-28T14:45:41.747Z,13.50
2022-11-28T14:48:18.928Z,13.50
2022-11-28T14:50:54.549Z,13.50
2022-11-28T14:53:44.835Z,13.50
2022-11-28T14:56:14.753Z,13.50
2022-11-28T14:58:51.151Z,13.50
2022-11-28T15:01:39.597Z,13.50
2022-11-28T15:04:28.289Z,13.50
2022-11-28T15:06:55.620Z,13.50
2022-11-28T15:09:48.608Z,13.40
2022-11-28T15:12:33.182Z,13.40
2022-11-28T15:15:01.516Z,13.40
2022-11-28T15:17:33.483Z,13.40
2022-11-28T15:20:14.912Z,13.40
2022-11-28T15:22:45.559Z,13.40
2022-11-28T15:25:19.059Z,13.40
2022-11-28T15:27:51.817Z,13.40
2022-11-28T15:30:26.796Z,13.40
2022-11-28T15:33:02.788Z,13.40
2022-11-28T15:35:32.996Z,13.30
2022-11-28T15:38:02.492Z,13.30
2022-11-28T15:40:33.489Z,13.30
2022-11-28T15:43:12.755Z,13.30
2022-11-28T15:45:42.321Z,13.30
2022-11-28T15:48:41.477Z,13.30
2022-11-28T15:51:21.994Z,13.30
2022-11-28T15:53:51.343Z,13.20
2022-11-28T15:56:19.139Z,13.20
2022-11-28T15:58:47.799Z,13.20
2022-11-28T16:01:20.463Z,13.20
2022-11-28T16:04:07.796Z,13.20
2022-11-28T16:06:38.055Z,13.10
2022-11-28T16:09:19.191Z,13.10
2022-11-28T16:11:49.857Z,13.10
2022-11-28T16:14:36.366Z,13.10
2022-11-28T16:17:14.814Z,13.10
2022-11-28T16:19:44.822Z,13.10
2022-11-28T16:22:21.273Z,13.10
2022-11-28T16:24:56.781Z,13.00
2022-11-28T16:27:53.480Z,13.10
2022-11-28T16:30:51.329Z,13.10
2022-11-28T16:33:54.100Z,13.00
2022-11-28T16:36:26.760Z,13.00
2022-11-28T16:39:12.186Z,13.00
2022-11-28T16:41:54.798Z,13.00
2022-11-28T16:44:24.801Z,13.00
2022-11-28T16:46:56.927Z,13.00
2022-11-28T16:49:37.951Z,12.90
2022-11-28T16:52:24.117Z,12.90
2022-11-28T16:54:58.758Z,12.90
2022-11-28T16:57:44.321Z,12.90
2022-11-28T17:00:14.621Z,12.80
2022-11-28T17:02:46.217Z,12.80
2022-11-28T17:05:18.047Z,12.80
2022-11-28T17:07:45.211Z,12.80
2022-11-28T17:10:13.399Z,12.70
2022-11-28T17:12:41.079Z,12.70
2022-11-28T17:15:15.172Z,12.70
2022-11-28T17:17:42.584Z,12.70
2022-11-28T17:20:12.046Z,12.70
2022-11-28T17:22:46.429Z,12.60
2022-11-28T17:25:20.719Z,12.60
2022-11-28T17:27:53.018Z,12.60
2022-11-28T17:30:22.118Z,12.60
2022-11-28T17:32:52.185Z,12.60
2022-11-28T17:35:24.414Z,12.50
2022-11-28T17:37:51.532Z,12.50
2022-11-28T17:40:34.212Z,12.50
2022-11-28T17:43:01.459Z,12.50
2022-11-28T17:45:34.729Z,12.40
2022-11-28T17:48:02.041Z,12.40
2022-11-28T17:50:29.368Z,12.40
2022-11-28T17:53:00.679Z,12.40
2022-11-28T17:55:32.463Z,12.40
2022-11-28T17:57:59.585Z,12.40
2022-11-28T18:00:29.220Z,12.40
2022-11-28T18:03:03.279Z,12.40
2022-11-28T18:05:36.059Z,12.40
2022-11-28T18:08:03.943Z,12.30
2022-11-28T18:10:31.136Z,12.30
2022-11-28T18:12:58.292Z,12.30
2022-11-28T18:15:30.082Z,12.30
2022-11-28T18:17:59.733Z,12.30
2022-11-28T18:20:29.019Z,12.20
2022-11-28T18:22:56.974Z,12.20
2022-11-28T18:25:27.952Z,12.20
2022-11-28T18:27:59.734Z,12.20
2022-11-28T18:30:29.162Z,12.20
2022-11-28T18:32:56.978Z,12.20
2022-11-28T18:35:26.332Z,12.20
2022-11-28T18:37:55.914Z,12.20
2022-11-28T18:40:23.103Z,12.20
2022-11-28T18:42:50.246Z,12.20
2022-11-28T18:45:17.703Z,12.20
2022-11-28T18:47:49.501Z,12.20
2022-11-28T18:50:16.699Z,12.10
2022-11-28T18:52:46.055Z,12.10
2022-11-28T18:55:18.090Z,12.10
2022-11-28T18:57:48.203Z,12.10
2022-11-28T19:00:20.544Z,12.10
2022-11-28T19:02:52.039Z,12.10
2022-11-28T19:05:19.259Z,12.10
2022-11-28T19:07:48.765Z,12.00
2022-11-28T19:10:16.000Z,12.00
2022-11-28T19:12:45.473Z,12.00
2022-11-28T19:15:12.600Z,12.00
2022-11-28T19:17:39.733Z,12.00
2022-11-28T19:20:12.083Z,12.00
2022-11-28T19:22:39.259Z,12.00
2022-11-28T19:25:08.999Z,12.00
2022-11-28T19:27:38.383Z,12.00
2022-11-28T19:30:08.855Z,12.00
2022-11-28T19:32:38.319Z,12.00
2022-11-28T19:35:05.773Z,12.00
2022-11-28T19:37:37.756Z,11.90
2022-11-28T19:40:07.789Z,11.90
2022-11-28T19:42:40.185Z,11.90
2022-11-28T19:45:10.433Z,11.90
2022-11-28T19:47:37.570Z,11.90
2022-11-28T19:50:05.640Z,11.80
2022-11-28T19:52:34.876Z,11.80
2022-11-28T19:55:06.593Z,11.80
2022-11-28T19:57:39.374Z,11.80
2022-11-28T20:00:07.147Z,11.80
2022-11-28T20:02:36.536Z,11.70
2022-11-28T20:05:03.811Z,11.70
2022-11-28T20:07:33.477Z,11.70
2022-11-28T20:10:03.186Z,11.70
2022-11-28T20:12:30.331Z,11.70
2022-11-28T20:14:57.474Z,11.70
2022-11-28T20:17:27.218Z,11.70
2022-11-28T20:19:54.365Z,11.70
2022-11-28T20:22:22.962Z,11.70
2022-11-28T20:24:50.169Z,11.70
2022-11-28T20:27:17.340Z,11.70
2022-11-28T20:29:47.127Z,11.70
2022-11-28T20:32:14.358Z,11.70
2022-11-28T20:34:41.512Z,11.70
2022-11-28T20:37:08.640Z,11.70
2022-11-28T20:39:39.669Z,11.70
2022-11-28T20:42:06.932Z,11.70
2022-11-28T20:44:34.149Z,11.70
2022-11-28T20:47:03.364Z,11.60
2022-11-28T20:49:32.716Z,11.60
2022-11-28T20:52:00.025Z,11.60
2022-11-28T20:54:27.230Z,11.70
2022-11-28T20:59:46.753Z,11.70
2022-11-28T21:02:14.105Z,11.70
2022-11-28T21:04:43.577Z,11.70
2022-11-28T21:07:10.677Z,11.70
2022-11-28T21:09:37.821Z,11.70
2022-11-28T21:12:05.053Z,11.70
2022-11-28T21:14:34.431Z,11.70
2022-11-28T21:17:06.347Z,11.60
2022-11-28T21:19:35.990Z,11.60
2022-11-28T21:22:05.686Z,11.60
2022-11-28T21:24:32.791Z,11.60
2022-11-28T21:27:00.205Z,11.60
2022-11-28T21:29:32.173Z,11.50
2022-11-28T21:32:01.545Z,11.50
2022-11-28T21:34:31.067Z,11.50
2022-11-28T21:36:58.170Z,11.50
2022-11-28T21:39:25.303Z,11.50
2022-11-28T21:41:52.667Z,11.50
2022-11-28T21:44:20.130Z,11.50
2022-11-28T21:46:49.852Z,11.40
2022-11-28T21:49:19.105Z,11.40
2022-11-28T21:51:48.736Z,11.40
2022-11-28T21:54:15.869Z,11.40
2022-11-28T21:57:02.671Z,11.40
2022-11-28T21:59:32.140Z,11.40
2022-11-28T22:02:03.256Z,11.40
2022-11-28T22:04:32.084Z,11.40
2022-11-28T22:06:59.190Z,11.30
2022-11-28T22:09:26.290Z,11.30
2022-11-28T22:11:53.413Z,11.30
2022-11-28T22:14:20.578Z,11.30
2022-11-28T22:16:50.205Z,11.30
2022-11-28T22:19:19.768Z,11.30
2022-11-28T22:21:52.129Z,11.30
2022-11-28T22:24:24.754Z,11.30
2022-11-28T22:26:55.156Z,11.20
2022-11-28T22:29:24.892Z,11.20
2022-11-28T22:31:52.423Z,11.20
2022-11-28T22:34:21.939Z,11.20
2022-11-28T22:36:49.129Z,11.20
2022-11-28T22:39:16.533Z,11.20
2022-11-28T22:41:46.096Z,11.20
2022-11-28T22:44:15.414Z,11.20
2022-11-28T22:46:45.019Z,11.20
2022-11-28T22:49:12.728Z,11.20
2022-11-28T22:51:42.549Z,11.20
2022-11-28T22:54:15.002Z,11.20
2022-11-28T22:56:44.664Z,11.10
2022-11-28T22:59:15.936Z,11.10
2022-11-28T23:01:45.636Z,11.10
2022-11-28T23:04:17.292Z,11.10
2022-11-28T23:06:44.688Z,11.10
2022-11-28T23:09:15.799Z,11.10
2022-11-28T23:11:43.127Z,11.10
2022-11-28T23:14:13.873Z,11.10
2022-11-28T23:16:43.376Z,11.10
2022-11-28T23:19:13.667Z,11.00
2022-11-28T23:21:43.353Z,11.00
2022-11-28T23:24:19.828Z,11.00
2022-11-28T23:26:48.004Z,11.00
2022-11-28T23:29:19.957Z,11.00
2022-11-28T23:31:47.775Z,11.00
2022-11-28T23:34:15.416Z,11.00
2022-11-28T23:36:49.244Z,10.90
2022-11-28T23:39:22.849Z,10.90
2022-11-28T23:41:50.617Z,10.90
2022-11-28T23:44:19.672Z,10.80
2022-11-28T23:46:47.570Z,10.80
2022-11-28T23:49:15.106Z,10.80
2022-11-28T23:51:42.327Z,10.80
2022-11-28T23:54:15.616Z,10.70
2022-11-28T23:56:43.405Z,10.70
2022-11-28T23:59:12.939Z,10.60
